Portada
METAR-TAF:

METAR-TAF

Aeroports :

Jabalpur, Índia

latitud: 23-10-54N, longitud: 80-03-31E, altitud: 495 m

Observació

L'informe es va fer fa 4 hores i 42 minuts, a les 15:30 UTC
Vent 4 kt del Est/Sud-Est
Temperatura 24°C
Humitat 61%
Pressió 1016 hPa
Visibilitat: 3000 m
calitja

METAR: VAJB 161530Z 12004KT 3000 HZ NSC 24/16 Q1016

Hora: 01:42 (20:12 UTC)

Pronòstic

L'informe es va fer fa 6 hores i 12 minuts, a les 14:00 UTC
Pronòstic vàlid del 16 a les 15 UTC al 16 a les 24 UTC
Vent 5 kt del Nord-Est
Visibilitat: 5000 m
Escasses núvols a una alçada de 2500 ft
calitja

TAF: VAJB 161400Z 1615/1624 05005KT 5000 HZ FEW025

Observacions i pronòstics meteorològics de més de 4000 aeroports (METAR i TAF).

Les estacions disponibles són els punts grocs i vermells al mapa.

Posi el ratolí al punt desitjat per veure el nom de l'estació.

Feu clic per veure les observacions i els pronòstics meteorològics.

Per canviar el mapa: feu clic els botons verds amb una creu de color negre per apropar; al botó verd amb un guió per allunyar la imatge; o en les fletxes verdes per a mapes adjacents.


METAR-TAF: